sensor_id;sensor_type;location;lat;lon;timestamp;P1;durP1;ratioP1;P2;durP2;ratioP2
22480;SDS011;11407;56.964;-2.212;2024-02-21T00:02:12;5.33;;;1.40;;
22480;SDS011;11407;56.964;-2.212;2024-02-21T00:04:37;9.50;;;1.40;;
22480;SDS011;11407;56.964;-2.212;2024-02-21T00:07:03;5.57;;;1.40;;
22480;SDS011;11407;56.964;-2.212;2024-02-21T00:09:29;4.83;;;1.57;;
22480;SDS011;11407;56.964;-2.212;2024-02-21T00:11:54;9.73;;;2.00;;
22480;SDS011;11407;56.964;-2.212;2024-02-21T00:14:19;6.93;;;1.63;;
22480;SDS011;11407;56.964;-2.212;2024-02-21T00:16:45;6.33;;;1.10;;
22480;SDS011;11407;56.964;-2.212;2024-02-21T00:19:10;3.83;;;1.33;;
22480;SDS011;11407;56.964;-2.212;2024-02-21T00:21:35;8.10;;;1.47;;
22480;SDS011;11407;56.964;-2.212;2024-02-21T00:24:01;9.73;;;1.73;;
22480;SDS011;11407;56.964;-2.212;2024-02-21T00:26:36;13.80;;;4.70;;
22480;SDS011;11407;56.964;-2.212;2024-02-21T00:29:05;11.97;;;3.10;;
22480;SDS011;11407;56.964;-2.212;2024-02-21T00:31:30;5.13;;;1.90;;
22480;SDS011;11407;56.964;-2.212;2024-02-21T00:33:57;8.27;;;2.10;;
22480;SDS011;11407;56.964;-2.212;2024-02-21T00:36:23;7.37;;;1.67;;
22480;SDS011;11407;56.964;-2.212;2024-02-21T00:38:48;5.73;;;1.40;;
22480;SDS011;11407;56.964;-2.212;2024-02-21T00:41:13;8.87;;;1.60;;
22480;SDS011;11407;56.964;-2.212;2024-02-21T00:43:39;4.83;;;1.33;;
22480;SDS011;11407;56.964;-2.212;2024-02-21T00:46:05;6.07;;;1.17;;
22480;SDS011;11407;56.964;-2.212;2024-02-21T00:48:30;9.63;;;1.60;;
22480;SDS011;11407;56.964;-2.212;2024-02-21T00:50:56;8.90;;;1.33;;
22480;SDS011;11407;56.964;-2.212;2024-02-21T00:53:21;7.53;;;1.50;;
22480;SDS011;11407;56.964;-2.212;2024-02-21T00:55:46;4.63;;;1.33;;
22480;SDS011;11407;56.964;-2.212;2024-02-21T00:58:11;8.03;;;1.20;;
22480;SDS011;11407;56.964;-2.212;2024-02-21T01:00:37;9.57;;;1.60;;
22480;SDS011;11407;56.964;-2.212;2024-02-21T01:03:02;4.87;;;1.10;;
22480;SDS011;11407;56.964;-2.212;2024-02-21T01:05:28;8.63;;;1.57;;
22480;SDS011;11407;56.964;-2.212;2024-02-21T01:07:54;7.97;;;1.50;;
22480;SDS011;11407;56.964;-2.212;2024-02-21T01:10:19;4.73;;;1.20;;
22480;SDS011;11407;56.964;-2.212;2024-02-21T01:12:44;6.23;;;1.23;;
22480;SDS011;11407;56.964;-2.212;2024-02-21T01:15:10;6.90;;;1.40;;
22480;SDS011;11407;56.964;-2.212;2024-02-21T01:17:36;14.23;;;1.70;;
22480;SDS011;11407;56.964;-2.212;2024-02-21T01:20:02;6.83;;;1.30;;
22480;SDS011;11407;56.964;-2.212;2024-02-21T01:22:28;5.87;;;1.20;;
22480;SDS011;11407;56.964;-2.212;2024-02-21T01:24:53;8.97;;;1.40;;
22480;SDS011;11407;56.964;-2.212;2024-02-21T01:27:19;6.57;;;1.60;;
22480;SDS011;11407;56.964;-2.212;2024-02-21T01:29:44;5.67;;;1.10;;
22480;SDS011;11407;56.964;-2.212;2024-02-21T01:32:11;9.00;;;1.63;;
22480;SDS011;11407;56.964;-2.212;2024-02-21T01:34:36;7.07;;;1.20;;
22480;SDS011;11407;56.964;-2.212;2024-02-21T01:37:02;8.37;;;1.80;;
22480;SDS011;11407;56.964;-2.212;2024-02-21T01:39:29;3.07;;;1.07;;
22480;SDS011;11407;56.964;-2.212;2024-02-21T01:41:54;6.23;;;1.40;;
22480;SDS011;11407;56.964;-2.212;2024-02-21T01:44:20;8.40;;;1.10;;
22480;SDS011;11407;56.964;-2.212;2024-02-21T01:46:45;6.40;;;1.60;;
22480;SDS011;11407;56.964;-2.212;2024-02-21T01:49:10;8.13;;;1.53;;
22480;SDS011;11407;56.964;-2.212;2024-02-21T01:51:36;7.30;;;1.33;;
22480;SDS011;11407;56.964;-2.212;2024-02-21T01:54:01;7.90;;;1.50;;
22480;SDS011;11407;56.964;-2.212;2024-02-21T01:56:26;7.27;;;1.10;;
22480;SDS011;11407;56.964;-2.212;2024-02-21T01:58:52;7.97;;;1.53;;
22480;SDS011;11407;56.964;-2.212;2024-02-21T02:01:18;4.07;;;1.30;;
22480;SDS011;11407;56.964;-2.212;2024-02-21T02:03:44;11.13;;;1.43;;
22480;SDS011;11407;56.964;-2.212;2024-02-21T02:06:10;7.33;;;1.33;;
22480;SDS011;11407;56.964;-2.212;2024-02-21T02:08:35;8.70;;;1.50;;
22480;SDS011;11407;56.964;-2.212;2024-02-21T02:11:01;5.63;;;1.10;;
22480;SDS011;11407;56.964;-2.212;2024-02-21T02:13:26;7.57;;;1.30;;
22480;SDS011;11407;56.964;-2.212;2024-02-21T02:15:51;7.60;;;1.60;;
22480;SDS011;11407;56.964;-2.212;2024-02-21T02:18:17;7.10;;;1.40;;
22480;SDS011;11407;56.964;-2.212;2024-02-21T02:20:43;7.83;;;2.13;;
22480;SDS011;11407;56.964;-2.212;2024-02-21T02:23:10;7.67;;;1.30;;
22480;SDS011;11407;56.964;-2.212;2024-02-21T02:25:35;11.97;;;1.80;;
22480;SDS011;11407;56.964;-2.212;2024-02-21T02:28:02;4.50;;;1.17;;
22480;SDS011;11407;56.964;-2.212;2024-02-21T02:30:27;14.67;;;2.03;;
22480;SDS011;11407;56.964;-2.212;2024-02-21T02:32:53;5.00;;;1.40;;
22480;SDS011;11407;56.964;-2.212;2024-02-21T02:35:18;9.93;;;1.60;;
22480;SDS011;11407;56.964;-2.212;2024-02-21T02:37:47;9.37;;;1.43;;
22480;SDS011;11407;56.964;-2.212;2024-02-21T02:40:13;6.30;;;1.40;;
22480;SDS011;11407;56.964;-2.212;2024-02-21T02:42:38;4.03;;;1.73;;
22480;SDS011;11407;56.964;-2.212;2024-02-21T02:45:04;9.27;;;1.67;;
22480;SDS011;11407;56.964;-2.212;2024-02-21T02:47:29;5.70;;;1.30;;
22480;SDS011;11407;56.964;-2.212;2024-02-21T02:49:54;3.93;;;1.17;;
22480;SDS011;11407;56.964;-2.212;2024-02-21T02:52:19;5.03;;;1.23;;
22480;SDS011;11407;56.964;-2.212;2024-02-21T02:54:45;6.17;;;1.70;;
22480;SDS011;11407;56.964;-2.212;2024-02-21T02:57:10;3.87;;;1.60;;
22480;SDS011;11407;56.964;-2.212;2024-02-21T02:59:35;7.83;;;1.47;;
22480;SDS011;11407;56.964;-2.212;2024-02-21T03:02:01;8.37;;;1.70;;
22480;SDS011;11407;56.964;-2.212;2024-02-21T03:04:26;8.40;;;1.70;;
22480;SDS011;11407;56.964;-2.212;2024-02-21T03:06:51;7.90;;;1.27;;
22480;SDS011;11407;56.964;-2.212;2024-02-21T03:09:16;8.37;;;1.40;;
22480;SDS011;11407;56.964;-2.212;2024-02-21T03:11:42;5.73;;;1.40;;
22480;SDS011;11407;56.964;-2.212;2024-02-21T03:14:09;12.00;;;1.37;;
22480;SDS011;11407;56.964;-2.212;2024-02-21T03:16:34;5.57;;;1.60;;
22480;SDS011;11407;56.964;-2.212;2024-02-21T03:18:59;6.67;;;1.60;;
22480;SDS011;11407;56.964;-2.212;2024-02-21T03:21:25;7.70;;;1.33;;
22480;SDS011;11407;56.964;-2.212;2024-02-21T03:23:50;10.30;;;1.60;;
22480;SDS011;11407;56.964;-2.212;2024-02-21T03:26:15;8.43;;;1.57;;
22480;SDS011;11407;56.964;-2.212;2024-02-21T03:28:42;10.13;;;1.60;;
22480;SDS011;11407;56.964;-2.212;2024-02-21T03:31:10;9.17;;;1.50;;
22480;SDS011;11407;56.964;-2.212;2024-02-21T03:33:36;5.40;;;1.43;;
22480;SDS011;11407;56.964;-2.212;2024-02-21T03:36:01;5.37;;;1.10;;
22480;SDS011;11407;56.964;-2.212;2024-02-21T03:38:26;8.97;;;1.80;;
22480;SDS011;11407;56.964;-2.212;2024-02-21T03:40:52;9.03;;;1.47;;
22480;SDS011;11407;56.964;-2.212;2024-02-21T03:43:17;7.80;;;1.40;;
22480;SDS011;11407;56.964;-2.212;2024-02-21T03:45:42;6.30;;;1.83;;
22480;SDS011;11407;56.964;-2.212;2024-02-21T03:48:07;8.13;;;1.60;;
22480;SDS011;11407;56.964;-2.212;2024-02-21T03:50:32;7.17;;;1.77;;
22480;SDS011;11407;56.964;-2.212;2024-02-21T03:52:58;12.97;;;2.70;;
22480;SDS011;11407;56.964;-2.212;2024-02-21T03:55:23;6.30;;;1.67;;
22480;SDS011;11407;56.964;-2.212;2024-02-21T03:57:48;8.93;;;1.70;;
22480;SDS011;11407;56.964;-2.212;2024-02-21T04:00:14;8.60;;;1.67;;
22480;SDS011;11407;56.964;-2.212;2024-02-21T04:02:39;11.50;;;1.60;;
22480;SDS011;11407;56.964;-2.212;2024-02-21T04:05:04;12.53;;;1.60;;
22480;SDS011;11407;56.964;-2.212;2024-02-21T04:07:31;6.53;;;1.57;;
22480;SDS011;11407;56.964;-2.212;2024-02-21T04:09:56;7.23;;;1.40;;
22480;SDS011;11407;56.964;-2.212;2024-02-21T04:12:21;8.57;;;1.83;;
22480;SDS011;11407;56.964;-2.212;2024-02-21T04:14:46;9.87;;;1.90;;
22480;SDS011;11407;56.964;-2.212;2024-02-21T04:17:12;7.17;;;1.67;;
22480;SDS011;11407;56.964;-2.212;2024-02-21T04:19:37;13.07;;;2.00;;
22480;SDS011;11407;56.964;-2.212;2024-02-21T04:22:02;7.73;;;1.30;;
22480;SDS011;11407;56.964;-2.212;2024-02-21T04:24:27;6.90;;;1.33;;
22480;SDS011;11407;56.964;-2.212;2024-02-21T04:26:53;9.77;;;1.53;;
22480;SDS011;11407;56.964;-2.212;2024-02-21T04:29:18;8.07;;;1.60;;
22480;SDS011;11407;56.964;-2.212;2024-02-21T04:31:43;6.33;;;1.30;;
22480;SDS011;11407;56.964;-2.212;2024-02-21T04:34:08;10.60;;;1.80;;
22480;SDS011;11407;56.964;-2.212;2024-02-21T04:36:34;7.57;;;1.57;;
22480;SDS011;11407;56.964;-2.212;2024-02-21T04:38:59;12.63;;;1.73;;
22480;SDS011;11407;56.964;-2.212;2024-02-21T04:41:24;9.47;;;1.60;;
22480;SDS011;11407;56.964;-2.212;2024-02-21T04:43:49;11.17;;;1.83;;
22480;SDS011;11407;56.964;-2.212;2024-02-21T04:46:15;12.20;;;1.83;;
22480;SDS011;11407;56.964;-2.212;2024-02-21T04:48:40;13.07;;;2.13;;
22480;SDS011;11407;56.964;-2.212;2024-02-21T04:51:06;8.00;;;1.53;;
22480;SDS011;11407;56.964;-2.212;2024-02-21T04:53:31;13.83;;;2.50;;
22480;SDS011;11407;56.964;-2.212;2024-02-21T04:55:56;9.67;;;2.27;;
22480;SDS011;11407;56.964;-2.212;2024-02-21T04:58:21;9.00;;;1.97;;
22480;SDS011;11407;56.964;-2.212;2024-02-21T05:00:47;12.40;;;2.17;;
22480;SDS011;11407;56.964;-2.212;2024-02-21T05:03:12;12.67;;;2.00;;
22480;SDS011;11407;56.964;-2.212;2024-02-21T05:05:37;16.33;;;2.50;;
22480;SDS011;11407;56.964;-2.212;2024-02-21T05:08:03;10.03;;;1.60;;
22480;SDS011;11407;56.964;-2.212;2024-02-21T05:10:28;11.67;;;2.40;;
22480;SDS011;11407;56.964;-2.212;2024-02-21T05:12:53;9.13;;;1.97;;
22480;SDS011;11407;56.964;-2.212;2024-02-21T05:15:19;7.50;;;1.70;;
22480;SDS011;11407;56.964;-2.212;2024-02-21T05:17:44;7.80;;;2.00;;
22480;SDS011;11407;56.964;-2.212;2024-02-21T05:20:09;7.67;;;1.97;;
22480;SDS011;11407;56.964;-2.212;2024-02-21T05:22:35;11.90;;;1.80;;
22480;SDS011;11407;56.964;-2.212;2024-02-21T05:25:00;11.07;;;2.13;;
22480;SDS011;11407;56.964;-2.212;2024-02-21T05:27:25;9.83;;;2.07;;
22480;SDS011;11407;56.964;-2.212;2024-02-21T05:29:51;6.60;;;1.23;;
22480;SDS011;11407;56.964;-2.212;2024-02-21T05:32:16;12.17;;;1.80;;
22480;SDS011;11407;56.964;-2.212;2024-02-21T05:34:42;8.63;;;1.70;;
22480;SDS011;11407;56.964;-2.212;2024-02-21T05:37:07;11.50;;;1.57;;
22480;SDS011;11407;56.964;-2.212;2024-02-21T05:39:32;4.77;;;1.63;;
22480;SDS011;11407;56.964;-2.212;2024-02-21T05:41:58;12.80;;;2.03;;
22480;SDS011;11407;56.964;-2.212;2024-02-21T05:44:23;9.20;;;2.30;;
22480;SDS011;11407;56.964;-2.212;2024-02-21T05:46:48;10.30;;;1.83;;
22480;SDS011;11407;56.964;-2.212;2024-02-21T05:49:13;13.13;;;2.00;;
22480;SDS011;11407;56.964;-2.212;2024-02-21T05:51:39;8.27;;;1.90;;
22480;SDS011;11407;56.964;-2.212;2024-02-21T05:54:04;8.63;;;1.80;;
22480;SDS011;11407;56.964;-2.212;2024-02-21T05:56:32;10.17;;;1.80;;
22480;SDS011;11407;56.964;-2.212;2024-02-21T05:58:58;6.10;;;1.73;;
22480;SDS011;11407;56.964;-2.212;2024-02-21T06:01:23;5.80;;;1.40;;
22480;SDS011;11407;56.964;-2.212;2024-02-21T06:03:49;9.33;;;1.83;;
22480;SDS011;11407;56.964;-2.212;2024-02-21T06:06:14;8.20;;;2.10;;
22480;SDS011;11407;56.964;-2.212;2024-02-21T06:08:42;11.77;;;2.57;;
22480;SDS011;11407;56.964;-2.212;2024-02-21T06:11:07;13.37;;;2.00;;
22480;SDS011;11407;56.964;-2.212;2024-02-21T06:13:33;6.90;;;1.47;;
22480;SDS011;11407;56.964;-2.212;2024-02-21T06:15:58;10.13;;;1.70;;
22480;SDS011;11407;56.964;-2.212;2024-02-21T06:18:23;13.57;;;1.90;;
22480;SDS011;11407;56.964;-2.212;2024-02-21T06:20:48;9.27;;;2.20;;
22480;SDS011;11407;56.964;-2.212;2024-02-21T06:23:15;9.93;;;2.10;;
22480;SDS011;11407;56.964;-2.212;2024-02-21T06:25:40;6.13;;;1.43;;
22480;SDS011;11407;56.964;-2.212;2024-02-21T06:28:06;6.93;;;1.53;;
22480;SDS011;11407;56.964;-2.212;2024-02-21T06:30:31;11.43;;;2.10;;
22480;SDS011;11407;56.964;-2.212;2024-02-21T06:32:56;12.37;;;1.90;;
22480;SDS011;11407;56.964;-2.212;2024-02-21T06:35:22;9.83;;;2.03;;
22480;SDS011;11407;56.964;-2.212;2024-02-21T06:37:49;8.93;;;1.77;;
22480;SDS011;11407;56.964;-2.212;2024-02-21T06:40:16;7.40;;;1.70;;
22480;SDS011;11407;56.964;-2.212;2024-02-21T06:42:41;12.77;;;1.97;;
22480;SDS011;11407;56.964;-2.212;2024-02-21T06:45:07;10.87;;;2.00;;
22480;SDS011;11407;56.964;-2.212;2024-02-21T06:47:32;10.37;;;1.87;;
22480;SDS011;11407;56.964;-2.212;2024-02-21T06:49:57;9.30;;;1.80;;
22480;SDS011;11407;56.964;-2.212;2024-02-21T06:52:23;11.83;;;2.00;;
22480;SDS011;11407;56.964;-2.212;2024-02-21T06:54:49;11.50;;;1.67;;
22480;SDS011;11407;56.964;-2.212;2024-02-21T06:57:15;11.77;;;2.00;;
22480;SDS011;11407;56.964;-2.212;2024-02-21T06:59:40;9.37;;;1.73;;
22480;SDS011;11407;56.964;-2.212;2024-02-21T07:02:06;14.70;;;2.07;;
22480;SDS011;11407;56.964;-2.212;2024-02-21T07:04:31;11.20;;;1.67;;
22480;SDS011;11407;56.964;-2.212;2024-02-21T07:06:56;12.83;;;2.20;;
22480;SDS011;11407;56.964;-2.212;2024-02-21T07:09:21;8.73;;;1.70;;
22480;SDS011;11407;56.964;-2.212;2024-02-21T07:11:47;16.10;;;2.03;;
22480;SDS011;11407;56.964;-2.212;2024-02-21T07:14:13;9.30;;;1.30;;
22480;SDS011;11407;56.964;-2.212;2024-02-21T07:16:39;12.73;;;1.77;;
22480;SDS011;11407;56.964;-2.212;2024-02-21T07:19:04;16.23;;;2.17;;
22480;SDS011;11407;56.964;-2.212;2024-02-21T07:21:30;10.27;;;1.50;;
22480;SDS011;11407;56.964;-2.212;2024-02-21T07:23:55;9.67;;;1.83;;
22480;SDS011;11407;56.964;-2.212;2024-02-21T07:26:20;8.73;;;1.83;;
22480;SDS011;11407;56.964;-2.212;2024-02-21T07:28:46;11.90;;;2.10;;
22480;SDS011;11407;56.964;-2.212;2024-02-21T07:31:12;24.27;;;2.70;;
22480;SDS011;11407;56.964;-2.212;2024-02-21T07:33:37;16.17;;;2.63;;
22480;SDS011;11407;56.964;-2.212;2024-02-21T07:36:06;16.47;;;2.60;;
22480;SDS011;11407;56.964;-2.212;2024-02-21T07:38:31;13.90;;;2.43;;
22480;SDS011;11407;56.964;-2.212;2024-02-21T07:40:56;17.70;;;2.40;;
22480;SDS011;11407;56.964;-2.212;2024-02-21T07:43:21;14.60;;;2.33;;
22480;SDS011;11407;56.964;-2.212;2024-02-21T07:45:47;17.27;;;3.00;;
22480;SDS011;11407;56.964;-2.212;2024-02-21T07:48:12;19.67;;;3.17;;
22480;SDS011;11407;56.964;-2.212;2024-02-21T07:50:37;11.33;;;2.00;;
22480;SDS011;11407;56.964;-2.212;2024-02-21T07:53:03;12.20;;;2.20;;
22480;SDS011;11407;56.964;-2.212;2024-02-21T07:55:28;11.13;;;2.20;;
22480;SDS011;11407;56.964;-2.212;2024-02-21T07:57:53;10.87;;;1.97;;
22480;SDS011;11407;56.964;-2.212;2024-02-21T08:00:19;11.70;;;2.20;;
22480;SDS011;11407;56.964;-2.212;2024-02-21T08:02:50;21.33;;;2.40;;
22480;SDS011;11407;56.964;-2.212;2024-02-21T08:05:15;17.50;;;3.33;;
22480;SDS011;11407;56.964;-2.212;2024-02-21T08:07:41;14.80;;;2.53;;
22480;SDS011;11407;56.964;-2.212;2024-02-21T08:10:06;12.27;;;2.10;;
22480;SDS011;11407;56.964;-2.212;2024-02-21T08:12:34;16.97;;;2.43;;
22480;SDS011;11407;56.964;-2.212;2024-02-21T08:15:00;12.83;;;2.40;;
22480;SDS011;11407;56.964;-2.212;2024-02-21T08:17:25;10.70;;;2.50;;
22480;SDS011;11407;56.964;-2.212;2024-02-21T08:19:50;10.07;;;2.97;;
22480;SDS011;11407;56.964;-2.212;2024-02-21T08:22:16;11.67;;;2.57;;
22480;SDS011;11407;56.964;-2.212;2024-02-21T08:24:41;12.60;;;2.03;;
22480;SDS011;11407;56.964;-2.212;2024-02-21T08:27:07;11.50;;;2.33;;
22480;SDS011;11407;56.964;-2.212;2024-02-21T08:29:32;11.60;;;2.03;;
22480;SDS011;11407;56.964;-2.212;2024-02-21T08:31:57;15.97;;;2.50;;
22480;SDS011;11407;56.964;-2.212;2024-02-21T08:34:23;11.33;;;1.90;;
22480;SDS011;11407;56.964;-2.212;2024-02-21T08:36:48;15.47;;;3.23;;
22480;SDS011;11407;56.964;-2.212;2024-02-21T08:39:13;17.77;;;2.83;;
22480;SDS011;11407;56.964;-2.212;2024-02-21T08:41:41;13.50;;;2.63;;
22480;SDS011;11407;56.964;-2.212;2024-02-21T08:44:07;17.10;;;2.23;;
22480;SDS011;11407;56.964;-2.212;2024-02-21T08:46:32;13.23;;;2.53;;
22480;SDS011;11407;56.964;-2.212;2024-02-21T08:48:57;10.03;;;2.40;;
22480;SDS011;11407;56.964;-2.212;2024-02-21T08:51:23;14.40;;;2.77;;
22480;SDS011;11407;56.964;-2.212;2024-02-21T08:53:48;11.33;;;2.93;;
22480;SDS011;11407;56.964;-2.212;2024-02-21T08:56:13;13.53;;;3.57;;
22480;SDS011;11407;56.964;-2.212;2024-02-21T08:58:39;10.10;;;3.83;;
22480;SDS011;11407;56.964;-2.212;2024-02-21T09:01:04;15.30;;;4.37;;
22480;SDS011;11407;56.964;-2.212;2024-02-21T09:03:33;17.30;;;4.67;;
22480;SDS011;11407;56.964;-2.212;2024-02-21T09:05:59;13.97;;;4.40;;
22480;SDS011;11407;56.964;-2.212;2024-02-21T09:08:24;28.07;;;5.90;;
22480;SDS011;11407;56.964;-2.212;2024-02-21T09:10:50;20.07;;;4.80;;
22480;SDS011;11407;56.964;-2.212;2024-02-21T09:13:15;19.73;;;5.03;;
22480;SDS011;11407;56.964;-2.212;2024-02-21T09:15:40;14.40;;;4.60;;
22480;SDS011;11407;56.964;-2.212;2024-02-21T09:18:06;18.50;;;4.43;;
22480;SDS011;11407;56.964;-2.212;2024-02-21T09:20:31;20.03;;;4.50;;
22480;SDS011;11407;56.964;-2.212;2024-02-21T09:22:56;22.63;;;4.67;;
22480;SDS011;11407;56.964;-2.212;2024-02-21T09:25:22;18.17;;;4.47;;
22480;SDS011;11407;56.964;-2.212;2024-02-21T09:27:47;12.77;;;3.43;;
22480;SDS011;11407;56.964;-2.212;2024-02-21T09:30:12;19.33;;;3.90;;
22480;SDS011;11407;56.964;-2.212;2024-02-21T09:32:38;19.53;;;3.60;;
22480;SDS011;11407;56.964;-2.212;2024-02-21T09:35:03;16.37;;;3.70;;
22480;SDS011;11407;56.964;-2.212;2024-02-21T09:37:30;14.73;;;3.27;;
22480;SDS011;11407;56.964;-2.212;2024-02-21T09:39:55;20.43;;;4.33;;
22480;SDS011;11407;56.964;-2.212;2024-02-21T09:42:21;19.33;;;3.77;;
22480;SDS011;11407;56.964;-2.212;2024-02-21T09:44:49;14.13;;;3.73;;
22480;SDS011;11407;56.964;-2.212;2024-02-21T09:47:29;13.50;;;3.33;;
22480;SDS011;11407;56.964;-2.212;2024-02-21T09:49:57;15.57;;;3.90;;
22480;SDS011;11407;56.964;-2.212;2024-02-21T09:52:23;11.63;;;3.30;;
22480;SDS011;11407;56.964;-2.212;2024-02-21T09:54:49;18.87;;;3.50;;
22480;SDS011;11407;56.964;-2.212;2024-02-21T09:57:17;14.20;;;3.60;;
22480;SDS011;11407;56.964;-2.212;2024-02-21T09:59:43;22.57;;;4.23;;
22480;SDS011;11407;56.964;-2.212;2024-02-21T10:02:09;14.50;;;3.80;;
22480;SDS011;11407;56.964;-2.212;2024-02-21T10:04:36;16.70;;;3.87;;
22480;SDS011;11407;56.964;-2.212;2024-02-21T10:07:01;13.67;;;3.07;;
22480;SDS011;11407;56.964;-2.212;2024-02-21T10:09:27;17.97;;;3.97;;
22480;SDS011;11407;56.964;-2.212;2024-02-21T10:11:53;17.17;;;3.40;;
22480;SDS011;11407;56.964;-2.212;2024-02-21T10:14:18;18.23;;;3.73;;
22480;SDS011;11407;56.964;-2.212;2024-02-21T10:16:45;12.10;;;3.27;;
22480;SDS011;11407;56.964;-2.212;2024-02-21T10:19:17;18.47;;;3.70;;
22480;SDS011;11407;56.964;-2.212;2024-02-21T10:21:42;13.70;;;3.57;;
22480;SDS011;11407;56.964;-2.212;2024-02-21T10:24:07;15.03;;;3.77;;
22480;SDS011;11407;56.964;-2.212;2024-02-21T10:26:32;15.00;;;3.40;;
22480;SDS011;11407;56.964;-2.212;2024-02-21T10:28:58;14.43;;;3.47;;
22480;SDS011;11407;56.964;-2.212;2024-02-21T10:31:24;16.83;;;3.40;;
22480;SDS011;11407;56.964;-2.212;2024-02-21T10:34:02;10.70;;;3.17;;
22480;SDS011;11407;56.964;-2.212;2024-02-21T10:36:30;19.13;;;3.33;;
22480;SDS011;11407;56.964;-2.212;2024-02-21T10:38:55;10.97;;;2.97;;
22480;SDS011;11407;56.964;-2.212;2024-02-21T10:41:21;14.23;;;3.03;;
22480;SDS011;11407;56.964;-2.212;2024-02-21T10:43:49;14.97;;;3.37;;
22480;SDS011;11407;56.964;-2.212;2024-02-21T10:46:14;13.50;;;3.20;;
22480;SDS011;11407;56.964;-2.212;2024-02-21T10:48:43;14.17;;;3.67;;
22480;SDS011;11407;56.964;-2.212;2024-02-21T10:51:16;21.10;;;3.80;;
22480;SDS011;11407;56.964;-2.212;2024-02-21T10:58:48;18.33;;;3.20;;
22480;SDS011;11407;56.964;-2.212;2024-02-21T11:01:13;19.00;;;3.80;;
22480;SDS011;11407;56.964;-2.212;2024-02-21T11:03:41;17.10;;;3.90;;
22480;SDS011;11407;56.964;-2.212;2024-02-21T11:06:06;16.00;;;3.77;;
22480;SDS011;11407;56.964;-2.212;2024-02-21T11:08:33;23.27;;;3.80;;
22480;SDS011;11407;56.964;-2.212;2024-02-21T11:10:58;16.53;;;3.27;;
22480;SDS011;11407;56.964;-2.212;2024-02-21T11:13:37;15.57;;;3.37;;
22480;SDS011;11407;56.964;-2.212;2024-02-21T11:16:07;13.33;;;3.70;;
22480;SDS011;11407;56.964;-2.212;2024-02-21T11:18:32;16.20;;;4.37;;
22480;SDS011;11407;56.964;-2.212;2024-02-21T11:20:58;22.50;;;4.07;;
22480;SDS011;11407;56.964;-2.212;2024-02-21T11:23:26;15.10;;;3.53;;
22480;SDS011;11407;56.964;-2.212;2024-02-21T11:25:51;22.47;;;4.27;;
22480;SDS011;11407;56.964;-2.212;2024-02-21T11:28:17;20.33;;;4.30;;
22480;SDS011;11407;56.964;-2.212;2024-02-21T11:30:50;19.00;;;4.17;;
22480;SDS011;11407;56.964;-2.212;2024-02-21T11:33:16;24.30;;;4.67;;
22480;SDS011;11407;56.964;-2.212;2024-02-21T11:35:41;24.07;;;4.40;;
22480;SDS011;11407;56.964;-2.212;2024-02-21T11:38:07;17.23;;;4.67;;
22480;SDS011;11407;56.964;-2.212;2024-02-21T11:40:33;19.93;;;4.53;;
22480;SDS011;11407;56.964;-2.212;2024-02-21T11:42:59;22.03;;;4.50;;
22480;SDS011;11407;56.964;-2.212;2024-02-21T11:45:25;16.53;;;4.00;;
22480;SDS011;11407;56.964;-2.212;2024-02-21T11:47:51;23.70;;;4.10;;
22480;SDS011;11407;56.964;-2.212;2024-02-21T11:50:16;25.30;;;5.07;;
22480;SDS011;11407;56.964;-2.212;2024-02-21T11:52:41;18.57;;;3.63;;
22480;SDS011;11407;56.964;-2.212;2024-02-21T11:55:07;16.67;;;4.10;;
22480;SDS011;11407;56.964;-2.212;2024-02-21T11:57:33;22.13;;;4.00;;
22480;SDS011;11407;56.964;-2.212;2024-02-21T12:00:10;20.20;;;4.00;;
22480;SDS011;11407;56.964;-2.212;2024-02-21T12:02:35;24.33;;;3.83;;
22480;SDS011;11407;56.964;-2.212;2024-02-21T12:05:00;16.57;;;3.80;;
22480;SDS011;11407;56.964;-2.212;2024-02-21T12:07:26;14.50;;;4.13;;
22480;SDS011;11407;56.964;-2.212;2024-02-21T12:09:53;14.97;;;3.50;;
22480;SDS011;11407;56.964;-2.212;2024-02-21T12:12:21;16.93;;;3.40;;
22480;SDS011;11407;56.964;-2.212;2024-02-21T12:14:47;18.50;;;4.07;;
22480;SDS011;11407;56.964;-2.212;2024-02-21T12:17:18;18.83;;;3.90;;
22480;SDS011;11407;56.964;-2.212;2024-02-21T12:19:44;15.77;;;3.97;;
22480;SDS011;11407;56.964;-2.212;2024-02-21T12:22:15;22.30;;;3.97;;
22480;SDS011;11407;56.964;-2.212;2024-02-21T12:24:41;15.53;;;4.33;;
22480;SDS011;11407;56.964;-2.212;2024-02-21T12:27:12;21.47;;;4.00;;
22480;SDS011;11407;56.964;-2.212;2024-02-21T12:29:37;18.57;;;4.27;;
22480;SDS011;11407;56.964;-2.212;2024-02-21T12:32:03;20.80;;;3.47;;
22480;SDS011;11407;56.964;-2.212;2024-02-21T12:34:29;17.60;;;3.50;;
22480;SDS011;11407;56.964;-2.212;2024-02-21T12:36:57;17.07;;;3.10;;
22480;SDS011;11407;56.964;-2.212;2024-02-21T12:39:22;17.17;;;3.57;;
22480;SDS011;11407;56.964;-2.212;2024-02-21T12:41:47;16.80;;;3.43;;
22480;SDS011;11407;56.964;-2.212;2024-02-21T12:44:13;18.97;;;3.50;;
22480;SDS011;11407;56.964;-2.212;2024-02-21T12:46:39;17.90;;;4.10;;
22480;SDS011;11407;56.964;-2.212;2024-02-21T12:49:07;18.80;;;3.87;;
22480;SDS011;11407;56.964;-2.212;2024-02-21T12:51:33;18.30;;;3.50;;
22480;SDS011;11407;56.964;-2.212;2024-02-21T12:53:58;18.13;;;3.40;;
22480;SDS011;11407;56.964;-2.212;2024-02-21T12:56:24;14.50;;;3.13;;
22480;SDS011;11407;56.964;-2.212;2024-02-21T12:58:49;21.43;;;3.87;;
22480;SDS011;11407;56.964;-2.212;2024-02-21T13:01:15;18.57;;;3.40;;
22480;SDS011;11407;56.964;-2.212;2024-02-21T13:03:40;14.83;;;3.33;;
22480;SDS011;11407;56.964;-2.212;2024-02-21T13:06:06;11.90;;;3.10;;
22480;SDS011;11407;56.964;-2.212;2024-02-21T13:08:36;12.53;;;3.03;;
22480;SDS011;11407;56.964;-2.212;2024-02-21T13:11:01;19.03;;;3.83;;
22480;SDS011;11407;56.964;-2.212;2024-02-21T13:13:26;12.17;;;2.93;;
22480;SDS011;11407;56.964;-2.212;2024-02-21T13:15:51;16.70;;;3.27;;
22480;SDS011;11407;56.964;-2.212;2024-02-21T13:18:17;12.80;;;3.17;;
22480;SDS011;11407;56.964;-2.212;2024-02-21T13:20:42;20.63;;;3.27;;
22480;SDS011;11407;56.964;-2.212;2024-02-21T13:23:07;13.53;;;3.10;;
22480;SDS011;11407;56.964;-2.212;2024-02-21T13:25:32;19.00;;;3.10;;
22480;SDS011;11407;56.964;-2.212;2024-02-21T13:27:58;8.93;;;3.10;;
22480;SDS011;11407;56.964;-2.212;2024-02-21T13:30:23;16.77;;;3.20;;
22480;SDS011;11407;56.964;-2.212;2024-02-21T13:32:50;16.60;;;3.27;;
22480;SDS011;11407;56.964;-2.212;2024-02-21T13:35:15;19.70;;;3.23;;
22480;SDS011;11407;56.964;-2.212;2024-02-21T13:37:40;11.77;;;2.73;;
22480;SDS011;11407;56.964;-2.212;2024-02-21T13:40:06;13.60;;;3.10;;
22480;SDS011;11407;56.964;-2.212;2024-02-21T13:42:33;13.53;;;2.50;;
22480;SDS011;11407;56.964;-2.212;2024-02-21T13:44:59;9.60;;;2.53;;
22480;SDS011;11407;56.964;-2.212;2024-02-21T13:47:24;11.60;;;2.70;;
22480;SDS011;11407;56.964;-2.212;2024-02-21T13:49:50;15.33;;;3.03;;
22480;SDS011;11407;56.964;-2.212;2024-02-21T13:52:15;10.20;;;2.93;;
22480;SDS011;11407;56.964;-2.212;2024-02-21T13:54:40;6.03;;;2.40;;
22480;SDS011;11407;56.964;-2.212;2024-02-21T13:57:06;11.50;;;2.50;;
22480;SDS011;11407;56.964;-2.212;2024-02-21T13:59:32;14.53;;;2.73;;
22480;SDS011;11407;56.964;-2.212;2024-02-21T14:01:58;12.83;;;2.73;;
22480;SDS011;11407;56.964;-2.212;2024-02-21T14:04:24;11.70;;;2.30;;
22480;SDS011;11407;56.964;-2.212;2024-02-21T14:06:49;13.17;;;2.80;;
22480;SDS011;11407;56.964;-2.212;2024-02-21T14:09:14;17.30;;;3.30;;
22480;SDS011;11407;56.964;-2.212;2024-02-21T14:11:39;13.73;;;2.70;;
22480;SDS011;11407;56.964;-2.212;2024-02-21T14:14:06;9.13;;;2.27;;
22480;SDS011;11407;56.964;-2.212;2024-02-21T14:16:32;10.80;;;2.30;;
22480;SDS011;11407;56.964;-2.212;2024-02-21T14:18:57;12.40;;;2.63;;
22480;SDS011;11407;56.964;-2.212;2024-02-21T14:21:22;10.20;;;2.30;;
22480;SDS011;11407;56.964;-2.212;2024-02-21T14:23:48;9.90;;;2.37;;